sensor_id;sensor_type;location;lat;lon;timestamp;P1;durP1;ratioP1;P2;durP2;ratioP2
3601;SDS011;1815;50.950;6.920;2022-08-19T00:01:28;6.93;;;6.33;;
3601;SDS011;1815;50.950;6.920;2022-08-19T00:03:58;6.00;;;5.43;;
3601;SDS011;1815;50.950;6.920;2022-08-19T00:06:26;5.77;;;5.27;;
3601;SDS011;1815;50.950;6.920;2022-08-19T00:08:53;6.67;;;5.57;;
3601;SDS011;1815;50.950;6.920;2022-08-19T00:11:20;5.93;;;5.40;;
3601;SDS011;1815;50.950;6.920;2022-08-19T00:13:46;8.07;;;5.20;;
3601;SDS011;1815;50.950;6.920;2022-08-19T00:16:14;6.17;;;5.67;;
3601;SDS011;1815;50.950;6.920;2022-08-19T00:18:40;6.47;;;5.33;;
3601;SDS011;1815;50.950;6.920;2022-08-19T00:21:06;5.93;;;5.33;;
3601;SDS011;1815;50.950;6.920;2022-08-19T00:23:34;6.77;;;6.07;;
3601;SDS011;1815;50.950;6.920;2022-08-19T00:26:02;6.80;;;5.80;;
3601;SDS011;1815;50.950;6.920;2022-08-19T00:28:28;6.87;;;6.10;;
3601;SDS011;1815;50.950;6.920;2022-08-19T00:30:55;5.63;;;5.13;;
3601;SDS011;1815;50.950;6.920;2022-08-19T00:33:21;6.53;;;5.93;;
3601;SDS011;1815;50.950;6.920;2022-08-19T00:35:47;6.50;;;5.90;;
3601;SDS011;1815;50.950;6.920;2022-08-19T00:38:13;7.63;;;7.03;;
3601;SDS011;1815;50.950;6.920;2022-08-19T00:40:38;6.90;;;5.87;;
3601;SDS011;1815;50.950;6.920;2022-08-19T00:43:08;7.50;;;6.90;;
3601;SDS011;1815;50.950;6.920;2022-08-19T00:45:35;8.43;;;7.13;;
3601;SDS011;1815;50.950;6.920;2022-08-19T00:48:01;8.83;;;6.97;;
3601;SDS011;1815;50.950;6.920;2022-08-19T00:50:31;7.70;;;7.00;;
3601;SDS011;1815;50.950;6.920;2022-08-19T00:52:58;7.33;;;6.70;;
3601;SDS011;1815;50.950;6.920;2022-08-19T00:55:26;8.40;;;7.60;;
3601;SDS011;1815;50.950;6.920;2022-08-19T00:58:04;7.83;;;7.13;;
3601;SDS011;1815;50.950;6.920;2022-08-19T01:00:33;8.50;;;7.70;;
3601;SDS011;1815;50.950;6.920;2022-08-19T01:03:02;8.63;;;7.83;;
3601;SDS011;1815;50.950;6.920;2022-08-19T01:05:30;8.63;;;7.93;;
3601;SDS011;1815;50.950;6.920;2022-08-19T01:07:57;8.70;;;7.80;;
3601;SDS011;1815;50.950;6.920;2022-08-19T01:10:27;7.77;;;6.63;;
3601;SDS011;1815;50.950;6.920;2022-08-19T01:12:57;7.73;;;7.03;;
3601;SDS011;1815;50.950;6.920;2022-08-19T01:15:26;9.63;;;7.30;;
3601;SDS011;1815;50.950;6.920;2022-08-19T01:18:07;7.93;;;7.23;;
3601;SDS011;1815;50.950;6.920;2022-08-19T01:20:37;8.30;;;7.53;;
3601;SDS011;1815;50.950;6.920;2022-08-19T01:23:04;8.00;;;6.80;;
3601;SDS011;1815;50.950;6.920;2022-08-19T01:25:39;10.30;;;8.40;;
3601;SDS011;1815;50.950;6.920;2022-08-19T01:28:14;9.20;;;8.40;;
3601;SDS011;1815;50.950;6.920;2022-08-19T01:30:45;8.33;;;7.37;;
3601;SDS011;1815;50.950;6.920;2022-08-19T01:33:11;8.17;;;7.43;;
3601;SDS011;1815;50.950;6.920;2022-08-19T01:35:38;7.70;;;7.03;;
3601;SDS011;1815;50.950;6.920;2022-08-19T01:38:06;7.70;;;7.10;;
3601;SDS011;1815;50.950;6.920;2022-08-19T01:40:36;8.57;;;7.77;;
3601;SDS011;1815;50.950;6.920;2022-08-19T01:43:03;7.87;;;7.17;;
3601;SDS011;1815;50.950;6.920;2022-08-19T01:45:30;7.10;;;6.50;;
3601;SDS011;1815;50.950;6.920;2022-08-19T01:47:57;7.63;;;6.80;;
3601;SDS011;1815;50.950;6.920;2022-08-19T01:50:24;7.40;;;6.70;;
3601;SDS011;1815;50.950;6.920;2022-08-19T01:52:51;8.23;;;7.53;;
3601;SDS011;1815;50.950;6.920;2022-08-19T01:55:19;8.70;;;7.60;;
3601;SDS011;1815;50.950;6.920;2022-08-19T01:57:48;9.13;;;8.27;;
3601;SDS011;1815;50.950;6.920;2022-08-19T02:00:18;8.50;;;7.13;;
3601;SDS011;1815;50.950;6.920;2022-08-19T02:02:45;7.50;;;6.83;;
3601;SDS011;1815;50.950;6.920;2022-08-19T02:05:11;8.20;;;7.40;;
3601;SDS011;1815;50.950;6.920;2022-08-19T02:07:38;7.47;;;6.73;;
3601;SDS011;1815;50.950;6.920;2022-08-19T02:10:07;8.07;;;7.27;;
3601;SDS011;1815;50.950;6.920;2022-08-19T02:12:35;7.60;;;6.90;;
3601;SDS011;1815;50.950;6.920;2022-08-19T02:15:01;7.60;;;6.90;;
3601;SDS011;1815;50.950;6.920;2022-08-19T02:17:28;7.90;;;7.17;;
3601;SDS011;1815;50.950;6.920;2022-08-19T02:19:55;8.33;;;7.53;;
3601;SDS011;1815;50.950;6.920;2022-08-19T02:22:21;9.60;;;7.57;;
3601;SDS011;1815;50.950;6.920;2022-08-19T02:24:48;7.33;;;6.60;;
3601;SDS011;1815;50.950;6.920;2022-08-19T02:27:14;8.27;;;7.57;;
3601;SDS011;1815;50.950;6.920;2022-08-19T02:29:40;7.90;;;7.10;;
3601;SDS011;1815;50.950;6.920;2022-08-19T02:32:06;10.30;;;8.07;;
3601;SDS011;1815;50.950;6.920;2022-08-19T02:34:33;8.07;;;7.40;;
3601;SDS011;1815;50.950;6.920;2022-08-19T02:36:59;9.30;;;8.47;;
3601;SDS011;1815;50.950;6.920;2022-08-19T02:39:25;9.03;;;8.27;;
3601;SDS011;1815;50.950;6.920;2022-08-19T02:41:51;9.30;;;8.30;;
3601;SDS011;1815;50.950;6.920;2022-08-19T02:44:18;9.73;;;8.90;;
3601;SDS011;1815;50.950;6.920;2022-08-19T02:46:44;9.87;;;9.03;;
3601;SDS011;1815;50.950;6.920;2022-08-19T02:49:12;8.67;;;7.87;;
3601;SDS011;1815;50.950;6.920;2022-08-19T02:51:41;12.90;;;8.20;;
3601;SDS011;1815;50.950;6.920;2022-08-19T02:54:09;8.93;;;8.13;;
3601;SDS011;1815;50.950;6.920;2022-08-19T02:56:37;8.37;;;7.67;;
3601;SDS011;1815;50.950;6.920;2022-08-19T02:59:04;8.90;;;8.00;;
3601;SDS011;1815;50.950;6.920;2022-08-19T03:01:33;8.90;;;8.10;;
3601;SDS011;1815;50.950;6.920;2022-08-19T03:04:00;12.10;;;8.50;;
3601;SDS011;1815;50.950;6.920;2022-08-19T03:06:27;9.17;;;8.37;;
3601;SDS011;1815;50.950;6.920;2022-08-19T03:08:54;8.47;;;7.77;;
3601;SDS011;1815;50.950;6.920;2022-08-19T03:11:25;10.87;;;9.90;;
3601;SDS011;1815;50.950;6.920;2022-08-19T03:13:55;11.20;;;10.00;;
3601;SDS011;1815;50.950;6.920;2022-08-19T03:16:22;10.40;;;9.37;;
3601;SDS011;1815;50.950;6.920;2022-08-19T03:18:50;9.37;;;8.57;;
3601;SDS011;1815;50.950;6.920;2022-08-19T03:21:19;9.93;;;9.00;;
3601;SDS011;1815;50.950;6.920;2022-08-19T03:23:49;11.10;;;10.00;;
3601;SDS011;1815;50.950;6.920;2022-08-19T03:26:15;11.90;;;10.70;;
3601;SDS011;1815;50.950;6.920;2022-08-19T03:28:42;10.80;;;9.80;;
3601;SDS011;1815;50.950;6.920;2022-08-19T03:31:13;11.20;;;10.30;;
3601;SDS011;1815;50.950;6.920;2022-08-19T03:33:39;12.70;;;11.57;;
3601;SDS011;1815;50.950;6.920;2022-08-19T03:38:36;11.33;;;10.33;;
3601;SDS011;1815;50.950;6.920;2022-08-19T03:41:04;11.90;;;10.87;;
3601;SDS011;1815;50.950;6.920;2022-08-19T03:43:36;12.83;;;11.57;;
3601;SDS011;1815;50.950;6.920;2022-08-19T03:46:07;13.63;;;11.30;;
3601;SDS011;1815;50.950;6.920;2022-08-19T03:48:39;15.30;;;13.20;;
3601;SDS011;1815;50.950;6.920;2022-08-19T03:51:07;14.53;;;13.33;;
3601;SDS011;1815;50.950;6.920;2022-08-19T03:53:40;15.17;;;13.80;;
3601;SDS011;1815;50.950;6.920;2022-08-19T03:56:07;14.33;;;12.97;;
3601;SDS011;1815;50.950;6.920;2022-08-19T03:58:34;15.77;;;14.27;;
3601;SDS011;1815;50.950;6.920;2022-08-19T04:01:02;18.23;;;16.53;;
3601;SDS011;1815;50.950;6.920;2022-08-19T04:03:45;16.53;;;14.87;;
3601;SDS011;1815;50.950;6.920;2022-08-19T04:06:22;17.00;;;15.50;;
3601;SDS011;1815;50.950;6.920;2022-08-19T04:08:51;18.13;;;16.53;;
3601;SDS011;1815;50.950;6.920;2022-08-19T04:11:23;21.50;;;19.50;;
3601;SDS011;1815;50.950;6.920;2022-08-19T04:13:51;22.77;;;20.50;;
3601;SDS011;1815;50.950;6.920;2022-08-19T04:16:19;20.23;;;18.53;;
3601;SDS011;1815;50.950;6.920;2022-08-19T04:18:46;21.90;;;20.00;;
3601;SDS011;1815;50.950;6.920;2022-08-19T04:21:23;21.33;;;19.43;;
3601;SDS011;1815;50.950;6.920;2022-08-19T04:23:50;22.53;;;20.70;;
3601;SDS011;1815;50.950;6.920;2022-08-19T04:26:17;22.50;;;20.10;;
3601;SDS011;1815;50.950;6.920;2022-08-19T04:28:45;22.67;;;20.40;;
3601;SDS011;1815;50.950;6.920;2022-08-19T04:31:15;23.70;;;21.70;;
3601;SDS011;1815;50.950;6.920;2022-08-19T04:34:01;22.40;;;20.40;;
3601;SDS011;1815;50.950;6.920;2022-08-19T04:36:30;22.70;;;20.63;;
3601;SDS011;1815;50.950;6.920;2022-08-19T04:38:59;23.50;;;21.07;;
3601;SDS011;1815;50.950;6.920;2022-08-19T04:41:27;20.40;;;18.60;;
3601;SDS011;1815;50.950;6.920;2022-08-19T04:44:12;22.17;;;20.13;;
3601;SDS011;1815;50.950;6.920;2022-08-19T04:46:39;22.20;;;20.30;;
3601;SDS011;1815;50.950;6.920;2022-08-19T04:49:05;20.83;;;18.93;;
3601;SDS011;1815;50.950;6.920;2022-08-19T04:51:33;25.70;;;20.30;;
3601;SDS011;1815;50.950;6.920;2022-08-19T04:54:00;22.87;;;20.57;;
3601;SDS011;1815;50.950;6.920;2022-08-19T04:56:26;21.70;;;19.70;;
3601;SDS011;1815;50.950;6.920;2022-08-19T04:58:53;23.13;;;20.93;;
3601;SDS011;1815;50.950;6.920;2022-08-19T05:01:24;21.93;;;19.90;;
3601;SDS011;1815;50.950;6.920;2022-08-19T05:03:53;23.43;;;21.23;;
3601;SDS011;1815;50.950;6.920;2022-08-19T05:06:20;23.63;;;21.13;;
3601;SDS011;1815;50.950;6.920;2022-08-19T05:08:48;25.63;;;23.03;;
3601;SDS011;1815;50.950;6.920;2022-08-19T05:13:45;26.17;;;23.47;;
3601;SDS011;1815;50.950;6.920;2022-08-19T05:16:13;24.27;;;22.17;;
3601;SDS011;1815;50.950;6.920;2022-08-19T05:18:41;24.17;;;22.13;;
3601;SDS011;1815;50.950;6.920;2022-08-19T05:21:26;23.63;;;21.37;;
3601;SDS011;1815;50.950;6.920;2022-08-19T05:24:11;25.30;;;22.77;;
3601;SDS011;1815;50.950;6.920;2022-08-19T05:26:39;22.70;;;20.67;;
3601;SDS011;1815;50.950;6.920;2022-08-19T05:29:09;25.73;;;23.43;;
3601;SDS011;1815;50.950;6.920;2022-08-19T05:31:35;24.57;;;22.37;;
3601;SDS011;1815;50.950;6.920;2022-08-19T05:34:03;26.30;;;24.07;;
3601;SDS011;1815;50.950;6.920;2022-08-19T05:36:33;24.20;;;21.90;;
3601;SDS011;1815;50.950;6.920;2022-08-19T05:39:05;22.10;;;20.30;;
3601;SDS011;1815;50.950;6.920;2022-08-19T05:41:32;23.90;;;20.10;;
3601;SDS011;1815;50.950;6.920;2022-08-19T05:44:00;21.20;;;19.20;;
3601;SDS011;1815;50.950;6.920;2022-08-19T05:46:26;22.70;;;20.60;;
3601;SDS011;1815;50.950;6.920;2022-08-19T05:48:52;22.90;;;20.83;;
3601;SDS011;1815;50.950;6.920;2022-08-19T05:51:21;20.80;;;19.00;;
3601;SDS011;1815;50.950;6.920;2022-08-19T05:53:47;22.53;;;20.50;;
3601;SDS011;1815;50.950;6.920;2022-08-19T05:56:14;22.17;;;20.27;;
3601;SDS011;1815;50.950;6.920;2022-08-19T05:58:41;22.40;;;20.60;;
3601;SDS011;1815;50.950;6.920;2022-08-19T06:01:10;21.43;;;19.40;;
3601;SDS011;1815;50.950;6.920;2022-08-19T06:03:38;21.07;;;19.17;;
3601;SDS011;1815;50.950;6.920;2022-08-19T06:06:05;20.27;;;18.40;;
3601;SDS011;1815;50.950;6.920;2022-08-19T06:08:33;20.53;;;18.53;;
3601;SDS011;1815;50.950;6.920;2022-08-19T06:11:14;21.00;;;19.20;;
3601;SDS011;1815;50.950;6.920;2022-08-19T06:13:44;19.73;;;18.00;;
3601;SDS011;1815;50.950;6.920;2022-08-19T06:16:15;20.53;;;18.73;;
3601;SDS011;1815;50.950;6.920;2022-08-19T06:18:47;21.53;;;19.33;;
3601;SDS011;1815;50.950;6.920;2022-08-19T06:21:20;21.03;;;19.03;;
3601;SDS011;1815;50.950;6.920;2022-08-19T06:23:48;19.30;;;17.60;;
3601;SDS011;1815;50.950;6.920;2022-08-19T06:26:16;18.90;;;17.30;;
3601;SDS011;1815;50.950;6.920;2022-08-19T06:28:43;19.57;;;17.67;;
3601;SDS011;1815;50.950;6.920;2022-08-19T06:31:19;22.27;;;20.17;;
3601;SDS011;1815;50.950;6.920;2022-08-19T06:33:46;19.77;;;17.87;;
3601;SDS011;1815;50.950;6.920;2022-08-19T06:39:24;18.03;;;16.23;;
3601;SDS011;1815;50.950;6.920;2022-08-19T06:41:52;19.53;;;17.87;;
3601;SDS011;1815;50.950;6.920;2022-08-19T06:44:22;18.13;;;16.43;;
3601;SDS011;1815;50.950;6.920;2022-08-19T06:46:51;18.33;;;16.73;;
3601;SDS011;1815;50.950;6.920;2022-08-19T06:49:17;19.87;;;18.17;;
3601;SDS011;1815;50.950;6.920;2022-08-19T06:51:44;19.17;;;17.37;;
3601;SDS011;1815;50.950;6.920;2022-08-19T06:54:13;20.23;;;18.43;;
3601;SDS011;1815;50.950;6.920;2022-08-19T06:56:39;18.93;;;17.07;;
3601;SDS011;1815;50.950;6.920;2022-08-19T06:59:12;16.13;;;14.63;;
3601;SDS011;1815;50.950;6.920;2022-08-19T07:01:41;17.33;;;15.60;;
3601;SDS011;1815;50.950;6.920;2022-08-19T07:04:11;17.27;;;15.80;;
3601;SDS011;1815;50.950;6.920;2022-08-19T07:06:37;18.10;;;16.50;;
3601;SDS011;1815;50.950;6.920;2022-08-19T07:09:07;19.10;;;16.67;;
3601;SDS011;1815;50.950;6.920;2022-08-19T07:11:34;15.93;;;14.53;;
3601;SDS011;1815;50.950;6.920;2022-08-19T07:14:00;17.20;;;15.70;;
3601;SDS011;1815;50.950;6.920;2022-08-19T07:16:27;15.60;;;14.30;;
3601;SDS011;1815;50.950;6.920;2022-08-19T07:18:53;18.00;;;16.10;;
3601;SDS011;1815;50.950;6.920;2022-08-19T07:21:20;15.20;;;13.87;;
3601;SDS011;1815;50.950;6.920;2022-08-19T07:23:53;16.40;;;15.00;;
3601;SDS011;1815;50.950;6.920;2022-08-19T07:26:22;17.10;;;15.60;;
3601;SDS011;1815;50.950;6.920;2022-08-19T07:28:52;17.20;;;15.53;;
3601;SDS011;1815;50.950;6.920;2022-08-19T07:31:20;16.10;;;14.70;;
3601;SDS011;1815;50.950;6.920;2022-08-19T07:33:48;16.77;;;15.07;;
3601;SDS011;1815;50.950;6.920;2022-08-19T07:36:17;17.57;;;15.97;;
3601;SDS011;1815;50.950;6.920;2022-08-19T07:38:46;16.87;;;15.23;;
3601;SDS011;1815;50.950;6.920;2022-08-19T07:41:14;17.23;;;15.40;;
3601;SDS011;1815;50.950;6.920;2022-08-19T07:43:43;17.80;;;16.10;;
3601;SDS011;1815;50.950;6.920;2022-08-19T07:46:09;18.37;;;16.87;;
3601;SDS011;1815;50.950;6.920;2022-08-19T07:48:38;17.73;;;16.23;;
3601;SDS011;1815;50.950;6.920;2022-08-19T07:51:06;16.53;;;15.17;;
3601;SDS011;1815;50.950;6.920;2022-08-19T07:53:35;19.67;;;17.57;;
3601;SDS011;1815;50.950;6.920;2022-08-19T07:56:02;20.50;;;17.37;;
3601;SDS011;1815;50.950;6.920;2022-08-19T07:58:30;20.57;;;18.50;;
3601;SDS011;1815;50.950;6.920;2022-08-19T08:00:57;21.00;;;18.87;;
3601;SDS011;1815;50.950;6.920;2022-08-19T08:03:24;20.33;;;18.53;;
3601;SDS011;1815;50.950;6.920;2022-08-19T08:06:11;21.17;;;19.27;;
3601;SDS011;1815;50.950;6.920;2022-08-19T08:08:55;23.13;;;20.83;;
3601;SDS011;1815;50.950;6.920;2022-08-19T08:11:38;22.07;;;20.00;;
3601;SDS011;1815;50.950;6.920;2022-08-19T08:14:05;23.50;;;21.30;;
3601;SDS011;1815;50.950;6.920;2022-08-19T08:16:35;23.83;;;21.60;;
3601;SDS011;1815;50.950;6.920;2022-08-19T08:19:05;24.47;;;21.97;;
3601;SDS011;1815;50.950;6.920;2022-08-19T08:21:32;24.80;;;22.50;;
3601;SDS011;1815;50.950;6.920;2022-08-19T08:23:58;22.90;;;20.80;;
3601;SDS011;1815;50.950;6.920;2022-08-19T08:26:24;23.63;;;21.50;;
3601;SDS011;1815;50.950;6.920;2022-08-19T08:28:51;22.20;;;20.20;;
3601;SDS011;1815;50.950;6.920;2022-08-19T08:31:18;23.80;;;21.40;;
3601;SDS011;1815;50.950;6.920;2022-08-19T08:33:44;25.60;;;23.20;;
3601;SDS011;1815;50.950;6.920;2022-08-19T08:36:11;23.60;;;21.40;;
3601;SDS011;1815;50.950;6.920;2022-08-19T08:38:39;26.30;;;23.73;;
3601;SDS011;1815;50.950;6.920;2022-08-19T08:41:12;25.20;;;22.90;;
3601;SDS011;1815;50.950;6.920;2022-08-19T08:43:45;24.83;;;22.53;;
3601;SDS011;1815;50.950;6.920;2022-08-19T08:46:16;23.40;;;21.20;;
3601;SDS011;1815;50.950;6.920;2022-08-19T08:51:51;24.10;;;21.93;;
3601;SDS011;1815;50.950;6.920;2022-08-19T08:54:35;26.47;;;24.00;;
3601;SDS011;1815;50.950;6.920;2022-08-19T08:57:07;23.83;;;21.53;;
3601;SDS011;1815;50.950;6.920;2022-08-19T08:59:39;24.70;;;22.37;;
3601;SDS011;1815;50.950;6.920;2022-08-19T09:02:07;21.30;;;19.47;;
3601;SDS011;1815;50.950;6.920;2022-08-19T09:04:34;23.17;;;20.93;;
3601;SDS011;1815;50.950;6.920;2022-08-19T09:09:46;20.97;;;19.07;;
3601;SDS011;1815;50.950;6.920;2022-08-19T09:12:33;21.13;;;19.23;;
3601;SDS011;1815;50.950;6.920;2022-08-19T09:15:05;20.63;;;18.90;;
3601;SDS011;1815;50.950;6.920;2022-08-19T09:17:34;18.80;;;17.10;;
3601;SDS011;1815;50.950;6.920;2022-08-19T09:20:03;19.10;;;17.40;;
3601;SDS011;1815;50.950;6.920;2022-08-19T09:22:39;17.03;;;15.53;;
3601;SDS011;1815;50.950;6.920;2022-08-19T09:25:10;17.67;;;16.07;;
3601;SDS011;1815;50.950;6.920;2022-08-19T09:27:38;17.83;;;15.67;;
3601;SDS011;1815;50.950;6.920;2022-08-19T09:30:05;17.07;;;15.70;;
3601;SDS011;1815;50.950;6.920;2022-08-19T09:32:33;17.30;;;15.90;;
3601;SDS011;1815;50.950;6.920;2022-08-19T09:35:00;18.90;;;17.10;;
3601;SDS011;1815;50.950;6.920;2022-08-19T09:37:26;16.73;;;15.13;;
3601;SDS011;1815;50.950;6.920;2022-08-19T09:39:52;14.83;;;13.63;;
3601;SDS011;1815;50.950;6.920;2022-08-19T09:42:19;15.07;;;13.77;;
3601;SDS011;1815;50.950;6.920;2022-08-19T09:44:45;15.73;;;14.37;;
3601;SDS011;1815;50.950;6.920;2022-08-19T09:47:12;14.10;;;13.00;;
3601;SDS011;1815;50.950;6.920;2022-08-19T09:49:39;14.30;;;13.00;;
3601;SDS011;1815;50.950;6.920;2022-08-19T09:52:06;13.50;;;12.30;;
3601;SDS011;1815;50.950;6.920;2022-08-19T09:54:34;12.33;;;10.70;;
3601;SDS011;1815;50.950;6.920;2022-08-19T09:57:00;11.20;;;10.30;;
3601;SDS011;1815;50.950;6.920;2022-08-19T09:59:26;11.23;;;10.23;;
3601;SDS011;1815;50.950;6.920;2022-08-19T10:01:53;9.60;;;8.90;;
3601;SDS011;1815;50.950;6.920;2022-08-19T10:04:19;12.13;;;11.13;;
3601;SDS011;1815;50.950;6.920;2022-08-19T10:06:46;11.27;;;9.70;;
3601;SDS011;1815;50.950;6.920;2022-08-19T10:09:14;9.63;;;8.83;;
3601;SDS011;1815;50.950;6.920;2022-08-19T10:11:42;8.53;;;7.83;;
3601;SDS011;1815;50.950;6.920;2022-08-19T10:14:15;9.00;;;7.03;;
3601;SDS011;1815;50.950;6.920;2022-08-19T10:16:42;7.70;;;7.10;;
3601;SDS011;1815;50.950;6.920;2022-08-19T10:19:08;7.90;;;7.03;;
3601;SDS011;1815;50.950;6.920;2022-08-19T10:21:34;9.70;;;6.60;;
3601;SDS011;1815;50.950;6.920;2022-08-19T10:24:01;9.97;;;9.00;;
3601;SDS011;1815;50.950;6.920;2022-08-19T10:26:37;10.53;;;9.70;;
3601;SDS011;1815;50.950;6.920;2022-08-19T10:29:07;9.53;;;8.77;;
3601;SDS011;1815;50.950;6.920;2022-08-19T10:31:33;10.43;;;9.50;;
3601;SDS011;1815;50.950;6.920;2022-08-19T10:33:59;9.93;;;9.10;;
3601;SDS011;1815;50.950;6.920;2022-08-19T10:36:28;8.93;;;8.30;;
3601;SDS011;1815;50.950;6.920;2022-08-19T10:38:56;10.93;;;9.93;;
3601;SDS011;1815;50.950;6.920;2022-08-19T10:41:28;11.10;;;10.07;;
3601;SDS011;1815;50.950;6.920;2022-08-19T10:43:56;11.00;;;9.90;;
3601;SDS011;1815;50.950;6.920;2022-08-19T10:46:24;10.90;;;9.97;;
3601;SDS011;1815;50.950;6.920;2022-08-19T10:48:51;10.83;;;9.70;;
3601;SDS011;1815;50.950;6.920;2022-08-19T10:51:18;9.47;;;8.77;;
3601;SDS011;1815;50.950;6.920;2022-08-19T10:54:03;12.30;;;11.30;;
3601;SDS011;1815;50.950;6.920;2022-08-19T10:56:29;12.20;;;11.20;;
3601;SDS011;1815;50.950;6.920;2022-08-19T10:59:15;12.80;;;11.70;;
3601;SDS011;1815;50.950;6.920;2022-08-19T11:01:43;11.90;;;10.80;;
3601;SDS011;1815;50.950;6.920;2022-08-19T11:04:10;10.80;;;9.80;;
3601;SDS011;1815;50.950;6.920;2022-08-19T11:06:41;11.57;;;10.60;;
3601;SDS011;1815;50.950;6.920;2022-08-19T11:09:09;12.40;;;11.37;;
3601;SDS011;1815;50.950;6.920;2022-08-19T11:11:36;12.70;;;11.50;;
3601;SDS011;1815;50.950;6.920;2022-08-19T11:14:09;10.00;;;8.93;;
3601;SDS011;1815;50.950;6.920;2022-08-19T11:16:37;9.40;;;8.60;;
3601;SDS011;1815;50.950;6.920;2022-08-19T11:19:04;9.37;;;8.47;;
3601;SDS011;1815;50.950;6.920;2022-08-19T11:21:37;6.83;;;6.23;;
3601;SDS011;1815;50.950;6.920;2022-08-19T11:24:12;7.27;;;6.67;;
3601;SDS011;1815;50.950;6.920;2022-08-19T11:26:41;6.53;;;6.03;;
3601;SDS011;1815;50.950;6.920;2022-08-19T11:29:08;7.70;;;7.10;;
3601;SDS011;1815;50.950;6.920;2022-08-19T11:31:39;8.93;;;8.03;;
3601;SDS011;1815;50.950;6.920;2022-08-19T11:34:08;7.47;;;6.87;;
3601;SDS011;1815;50.950;6.920;2022-08-19T11:36:38;8.37;;;7.67;;
3601;SDS011;1815;50.950;6.920;2022-08-19T11:39:07;7.30;;;6.63;;
3601;SDS011;1815;50.950;6.920;2022-08-19T11:41:34;7.70;;;6.90;;
3601;SDS011;1815;50.950;6.920;2022-08-19T11:44:01;7.47;;;6.87;;
3601;SDS011;1815;50.950;6.920;2022-08-19T11:46:31;6.20;;;5.60;;
3601;SDS011;1815;50.950;6.920;2022-08-19T11:48:58;6.93;;;6.43;;
3601;SDS011;1815;50.950;6.920;2022-08-19T11:51:28;6.63;;;6.03;;
3601;SDS011;1815;50.950;6.920;2022-08-19T11:53:55;7.07;;;6.47;;
3601;SDS011;1815;50.950;6.920;2022-08-19T11:56:23;6.83;;;5.97;;
3601;SDS011;1815;50.950;6.920;2022-08-19T11:58:50;5.60;;;5.10;;
3601;SDS011;1815;50.950;6.920;2022-08-19T12:01:18;6.23;;;5.70;;
3601;SDS011;1815;50.950;6.920;2022-08-19T12:03:45;7.03;;;6.20;;
3601;SDS011;1815;50.950;6.920;2022-08-19T12:06:13;6.77;;;6.00;;
3601;SDS011;1815;50.950;6.920;2022-08-19T12:08:41;6.73;;;6.13;;
3601;SDS011;1815;50.950;6.920;2022-08-19T12:11:08;7.60;;;6.80;;
3601;SDS011;1815;50.950;6.920;2022-08-19T12:13:36;7.20;;;6.40;;
3601;SDS011;1815;50.950;6.920;2022-08-19T12:16:13;8.00;;;7.40;;
3601;SDS011;1815;50.950;6.920;2022-08-19T12:18:47;6.60;;;6.00;;
3601;SDS011;1815;50.950;6.920;2022-08-19T12:21:16;6.40;;;5.80;;
3601;SDS011;1815;50.950;6.920;2022-08-19T12:23:50;5.37;;;4.87;;
3601;SDS011;1815;50.950;6.920;2022-08-19T12:26:16;8.30;;;7.60;;
3601;SDS011;1815;50.950;6.920;2022-08-19T12:28:43;7.07;;;6.47;;
3601;SDS011;1815;50.950;6.920;2022-08-19T12:31:09;7.20;;;6.60;;
3601;SDS011;1815;50.950;6.920;2022-08-19T12:33:39;7.77;;;7.07;;
3601;SDS011;1815;50.950;6.920;2022-08-19T12:36:06;6.63;;;5.90;;
3601;SDS011;1815;50.950;6.920;2022-08-19T12:38:34;6.83;;;6.23;;
3601;SDS011;1815;50.950;6.920;2022-08-19T12:41:00;8.33;;;6.83;;
3601;SDS011;1815;50.950;6.920;2022-08-19T12:43:30;6.97;;;6.03;;
3601;SDS011;1815;50.950;6.920;2022-08-19T12:45:56;6.77;;;6.17;;
3601;SDS011;1815;50.950;6.920;2022-08-19T12:48:22;7.10;;;6.50;;
3601;SDS011;1815;50.950;6.920;2022-08-19T12:50:48;6.87;;;6.17;;
3601;SDS011;1815;50.950;6.920;2022-08-19T12:53:14;6.80;;;5.80;;
3601;SDS011;1815;50.950;6.920;2022-08-19T12:55:40;7.57;;;6.20;;
3601;SDS011;1815;50.950;6.920;2022-08-19T12:58:07;6.20;;;5.70;;
3601;SDS011;1815;50.950;6.920;2022-08-19T13:00:33;6.00;;;5.50;;
3601;SDS011;1815;50.950;6.920;2022-08-19T13:02:59;7.40;;;6.70;;
3601;SDS011;1815;50.950;6.920;2022-08-19T13:05:27;6.57;;;6.00;;
3601;SDS011;1815;50.950;6.920;2022-08-19T13:07:55;7.73;;;6.60;;
3601;SDS011;1815;50.950;6.920;2022-08-19T13:10:25;7.67;;;6.70;;
3601;SDS011;1815;50.950;6.920;2022-08-19T13:12:54;7.37;;;6.67;;
3601;SDS011;1815;50.950;6.920;2022-08-19T13:15:22;7.23;;;6.20;;
3601;SDS011;1815;50.950;6.920;2022-08-19T13:17:49;5.60;;;5.00;;
3601;SDS011;1815;50.950;6.920;2022-08-19T13:20:17;9.20;;;6.57;;
3601;SDS011;1815;50.950;6.920;2022-08-19T13:22:45;10.30;;;6.10;;
3601;SDS011;1815;50.950;6.920;2022-08-19T13:25:12;7.97;;;6.43;;
3601;SDS011;1815;50.950;6.920;2022-08-19T13:27:39;6.03;;;5.43;;
3601;SDS011;1815;50.950;6.920;2022-08-19T13:30:06;7.07;;;5.97;;
3601;SDS011;1815;50.950;6.920;2022-08-19T13:32:52;8.80;;;7.07;;
3601;SDS011;1815;50.950;6.920;2022-08-19T13:35:36;9.83;;;7.10;;
3601;SDS011;1815;50.950;6.920;2022-08-19T13:38:07;8.07;;;6.67;;
3601;SDS011;1815;50.950;6.920;2022-08-19T13:40:33;5.87;;;5.27;;
3601;SDS011;1815;50.950;6.920;2022-08-19T13:42:59;5.90;;;5.23;;
3601;SDS011;1815;50.950;6.920;2022-08-19T13:45:27;5.50;;;4.93;;
3601;SDS011;1815;50.950;6.920;2022-08-19T13:47:54;5.33;;;4.83;;
3601;SDS011;1815;50.950;6.920;2022-08-19T13:50:23;8.30;;;4.60;;
3601;SDS011;1815;50.950;6.920;2022-08-19T13:52:52;5.23;;;4.67;;
3601;SDS011;1815;50.950;6.920;2022-08-19T13:55:18;5.07;;;4.30;;
3601;SDS011;1815;50.950;6.920;2022-08-19T13:57:45;8.90;;;4.80;;
3601;SDS011;1815;50.950;6.920;2022-08-19T14:00:15;5.93;;;4.93;;
3601;SDS011;1815;50.950;6.920;2022-08-19T14:02:43;5.50;;;4.87;;
3601;SDS011;1815;50.950;6.920;2022-08-19T14:05:13;5.20;;;4.70;;
3601;SDS011;1815;50.950;6.920;2022-08-19T14:07:40;6.80;;;4.67;;
3601;SDS011;1815;50.950;6.920;2022-08-19T14:10:07;4.90;;;4.17;;
3601;SDS011;1815;50.950;6.920;2022-08-19T14:12:34;4.83;;;4.43;;
3601;SDS011;1815;50.950;6.920;2022-08-19T14:15:02;6.97;;;5.97;;
3601;SDS011;1815;50.950;6.920;2022-08-19T14:17:29;7.50;;;6.20;;
3601;SDS011;1815;50.950;6.920;2022-08-19T14:19:58;7.77;;;7.07;;
3601;SDS011;1815;50.950;6.920;2022-08-19T14:22:34;7.50;;;6.57;;
3601;SDS011;1815;50.950;6.920;2022-08-19T14:25:01;5.83;;;5.10;;
3601;SDS011;1815;50.950;6.920;2022-08-19T14:27:28;5.20;;;4.60;;
3601;SDS011;1815;50.950;6.920;2022-08-19T14:29:54;5.73;;;5.23;;
3601;SDS011;1815;50.950;6.920;2022-08-19T14:32:20;6.23;;;5.20;;
3601;SDS011;1815;50.950;6.920;2022-08-19T14:34:46;4.60;;;4.20;;
3601;SDS011;1815;50.950;6.920;2022-08-19T14:37:13;7.93;;;5.50;;
3601;SDS011;1815;50.950;6.920;2022-08-19T14:39:40;5.60;;;5.10;;
3601;SDS011;1815;50.950;6.920;2022-08-19T14:42:07;6.00;;;5.40;;
3601;SDS011;1815;50.950;6.920;2022-08-19T14:44:34;4.80;;;4.40;;
3601;SDS011;1815;50.950;6.920;2022-08-19T14:46:59;4.27;;;3.87;;
3601;SDS011;1815;50.950;6.920;2022-08-19T14:49:26;5.80;;;4.87;;
3601;SDS011;1815;50.950;6.920;2022-08-19T14:51:51;6.03;;;5.53;;
3601;SDS011;1815;50.950;6.920;2022-08-19T14:54:17;5.23;;;4.73;;
3601;SDS011;1815;50.950;6.920;2022-08-19T14:56:43;4.20;;;3.67;;
3601;SDS011;1815;50.950;6.920;2022-08-19T14:59:10;4.10;;;3.70;;
3601;SDS011;1815;50.950;6.920;2022-08-19T15:01:35;4.60;;;3.47;;
3601;SDS011;1815;50.950;6.920;2022-08-19T15:04:01;6.33;;;3.23;;
3601;SDS011;1815;50.950;6.920;2022-08-19T15:06:27;3.70;;;2.70;;
3601;SDS011;1815;50.950;6.920;2022-08-19T15:08:54;6.20;;;4.40;;
3601;SDS011;1815;50.950;6.920;2022-08-19T15:11:21;7.37;;;6.40;;
3601;SDS011;1815;50.950;6.920;2022-08-19T15:13:48;6.23;;;4.93;;
3601;SDS011;1815;50.950;6.920;2022-08-19T15:16:15;7.00;;;4.23;;
3601;SDS011;1815;50.950;6.920;2022-08-19T15:18:42;5.13;;;4.00;;
3601;SDS011;1815;50.950;6.920;2022-08-19T15:21:12;6.17;;;3.00;;
3601;SDS011;1815;50.950;6.920;2022-08-19T15:23:40;4.30;;;2.50;;
3601;SDS011;1815;50.950;6.920;2022-08-19T15:26:06;3.80;;;3.03;;